Terminal Aerodrome Forecast
Issued by NWS Spokane, WA

Home | Current Version | Previous Version | Text Only | Print | Product List | Glossary On
Versions: 1 2 3 4 5 6 7 8 9 10 11 12 13 14 15 16 17 18 19 20 21 22 23 24 25 26 27 28 29 30 31 32 33
000
FTUS46 KOTX 231211 AAA
TAFEAT
TAF AMD
KEAT 231211Z 2312/2412 33004KT 1SM BR OVC005
      TEMPO 2312/2316 1/4SM FG VV003
     FM231800 VRB04KT 3SM BR OVC015
     FM232000 29021G32KT P6SM FEW060 SCT200
     FM240300 30015KT P6SM FEW060 SCT200
     FM240600 30008KT 3SM BR SCT250=

USA.gov is the U.S. government's official web portal to all federal, state and local government web resources and services.